aviador You're here:

KMUI Decoded Metar

MUIR in PA, USA
Report Time2018-02-17 23:26:00
UTC Time2018-02-17 23:41:03
Flight Rules lifr LIFR
WindCalm
Visibility1207 m
Phenomena:Light Snow
Mist
Clouds:N/A
Ceiling500 ft
Temp-1°C (ISA -15)
Dew Point-1°C (100% RH)
AAT-3.1°C
QNH1021 hPa
Density Alt-1,542 ft
Elevation489 ft
Report Wrong Elevation
Raw Report
SPECI KMUI 172326Z AUTO 00000KT 3/4SM -SN BR VV005 M01/M01 A3014 RMK
AO2 CIG 003V005 SLP215 RVRNO $=

Extra information for KMUI:More info

Metar Taf Metar & Taf Last 4 Metars F.Rules Stats Wind Profile Meteogram Temp Stats Airport Information Weather charts Add Link Nearby VenuesMetar ALERT Operation Metar Decoded Social comments

AIRNAV info for KMUI